ZYTX/SHE METAR and TAF weather

Enter ICAO airport designator
Station Type Date Time Source
ZYTX METAR 2021/03/05 07:30 UTC NOAA

ZYTX 050730Z 03008MPS CAVOK M03/M15 Q1032 NOSIG


Station Type Date Time Source
ZYTX Decoded METAR 2021/03/05 07:30 UTC NOAA

Shenyang / Taokian, China (ZYTX) 41-48N 123-24E
Mar 05, 2021 - 02:30 AM EST / 2021.03.05 0730 UTC
Wind: from the NNE (030 degrees) at 18 MPH (16 KT):0
Visibility: greater than 7 mile(s):0
Temperature: 26 F (-3 C)
Windchill: 12 F (-11 C):1
Dew Point: 5 F (-15 C)
Relative Humidity: 39%
Pressure (altimeter): 30.47 in. Hg (1032 hPa)
ob: ZYTX 050730Z 03008MPS CAVOK M03/M15 Q1032 NOSIG
cycle: 7

Station Type Date Time Source
ZYTX TAF 2021/03/05 06:03 UTC NOAA

TAF ZYTX 050302Z 0506/0606 03007G13MPS 6000 BKN026 TXM01/0606Z TNM12/0521Z

Example: see airport list